Time,TemperatureF,DewpointF,PressureIn,WindDirection,WindDirectionDegrees,WindSpeedMPH,WindSpeedGustMPH,Humidity,HourlyPrecipIn,Conditions,Clouds,dailyrainin,SoftwareType,DateUTC
2013-03-03 00:01:00,19.9,7.5,31.78,NW,315,0.0,0.0,58,0.00,,,0.00,meteohub,2013-03-03 07:01:00,
2013-03-03 00:07:00,20.3,7.9,31.78,SE,135,0.0,0.0,58,0.00,,,0.00,meteohub,2013-03-03 07:07:00,
2013-03-03 00:12:00,20.1,7.7,31.78,South,180,0.0,0.0,58,0.00,,,0.00,meteohub,2013-03-03 07:12:00,
2013-03-03 00:17:00,19.8,7.3,31.78,West,270,0.0,0.0,58,0.00,,,0.00,meteohub,2013-03-03 07:17:00,
2013-03-03 00:22:00,19.9,7.5,31.78,West,270,0.0,0.0,58,0.00,,,0.00,meteohub,2013-03-03 07:22:00,
2013-03-03 00:27:00,20.3,8.2,31.77,NW,315,0.0,0.0,59,0.00,,,0.00,meteohub,2013-03-03 07:27:00,
2013-03-03 00:32:00,20.7,8.2,31.77,South,180,0.0,0.0,58,0.00,,,0.00,meteohub,2013-03-03 07:32:00,
2013-03-03 00:37:00,20.5,8.4,31.77,West,270,0.0,0.0,59,0.00,,,0.00,meteohub,2013-03-03 07:37:00,
2013-03-03 00:42:00,20.7,8.6,31.77,SE,135,0.0,0.0,59,0.00,,,0.00,meteohub,2013-03-03 07:42:00,
2013-03-03 00:47:00,20.5,8.1,31.76,West,270,0.0,0.0,58,0.00,,,0.00,meteohub,2013-03-03 07:47:00,
2013-03-03 00:52:00,20.3,7.9,31.76,SW,225,0.0,0.0,58,0.00,,,0.00,meteohub,2013-03-03 07:52:00,
2013-03-03 00:57:00,20.1,7.7,31.76,West,270,0.0,0.0,58,0.00,,,0.00,meteohub,2013-03-03 07:57:00,
2013-03-03 01:02:00,19.9,7.5,31.76,West,270,0.0,0.0,58,0.00,,,0.00,meteohub,2013-03-03 08:02:00,
2013-03-03 01:07:00,19.9,7.5,31.76,West,270,0.0,0.0,58,0.00,,,0.00,meteohub,2013-03-03 08:07:00,
2013-03-03 01:12:00,19.0,5.2,31.76,SW,225,0.0,0.0,54,0.00,,,0.00,meteohub,2013-03-03 08:12:00,
2013-03-03 01:18:00,18.5,4.6,31.75,SE,135,0.0,0.0,54,0.00,,,0.00,meteohub,2013-03-03 08:18:00,
2013-03-03 01:23:00,18.3,4.8,31.75,North,0,0.0,0.0,55,0.00,,,0.00,meteohub,2013-03-03 08:23:00,
2013-03-03 01:29:00,18.0,4.5,31.75,SW,225,0.0,0.0,55,0.00,,,0.00,meteohub,2013-03-03 08:29:00,
2013-03-03 01:34:00,17.2,4.3,31.75,East,90,0.0,0.0,56,0.00,,,0.00,meteohub,2013-03-03 08:34:00,
2013-03-03 01:40:00,16.7,3.7,31.75,West,270,0.0,0.0,56,0.00,,,0.00,meteohub,2013-03-03 08:40:00,
2013-03-03 01:45:00,16.5,3.9,31.75,NE,45,0.0,4.0,57,0.00,,,0.00,meteohub,2013-03-03 08:45:00,
2013-03-03 01:51:00,16.3,4.1,31.75,South,180,0.0,4.0,58,0.00,,,0.00,meteohub,2013-03-03 08:51:00,
2013-03-03 01:56:00,16.2,3.9,31.75,East,90,0.0,4.0,58,0.00,,,0.00,meteohub,2013-03-03 08:56:00,
2013-03-03 02:02:00,16.2,4.3,31.74,SW,225,0.0,0.0,59,0.00,,,0.00,meteohub,2013-03-03 09:02:00,
2013-03-03 02:07:00,16.2,4.3,31.74,South,180,0.0,0.0,59,0.00,,,0.00,meteohub,2013-03-03 09:07:00,
2013-03-03 02:12:00,16.5,5.0,31.74,South,180,0.0,0.0,60,0.00,,,0.00,meteohub,2013-03-03 09:12:00,
2013-03-03 02:17:00,16.5,5.0,31.73,SW,225,0.0,0.0,60,0.00,,,0.00,meteohub,2013-03-03 09:17:00,
2013-03-03 02:22:00,16.7,5.5,31.73,North,0,0.0,0.0,61,0.00,,,0.00,meteohub,2013-03-03 09:22:00,
2013-03-03 02:27:00,16.9,5.7,31.73,South,180,0.0,0.0,61,0.00,,,0.00,meteohub,2013-03-03 09:27:00,
2013-03-03 02:32:00,16.5,5.0,31.72,NE,45,0.0,0.0,60,0.00,,,0.00,meteohub,2013-03-03 09:32:00,
2013-03-03 02:38:00,16.5,5.0,31.72,West,270,4.0,4.0,60,0.00,,,0.00,meteohub,2013-03-03 09:38:00,
2013-03-03 02:44:00,16.9,5.7,31.72,SW,225,0.0,4.0,61,0.00,,,0.00,meteohub,2013-03-03 09:44:00,
2013-03-03 02:49:00,17.2,6.4,31.71,NW,315,0.0,5.0,62,0.00,,,0.00,meteohub,2013-03-03 09:49:00,
2013-03-03 02:55:00,17.8,6.3,31.71,SE,135,0.0,4.0,60,0.00,,,0.00,meteohub,2013-03-03 09:55:00,
2013-03-03 03:01:00,17.4,5.9,31.71,SW,225,0.0,4.0,60,0.00,,,0.00,meteohub,2013-03-03 10:01:00,
2013-03-03 03:06:00,17.4,5.9,31.71,SW,225,0.0,4.0,60,0.00,,,0.00,meteohub,2013-03-03 10:06:00,
2013-03-03 03:12:00,17.1,5.5,31.71,SW,225,0.0,0.0,60,0.00,,,0.00,meteohub,2013-03-03 10:12:00,
2013-03-03 03:17:00,16.9,5.4,31.70,SW,225,0.0,0.0,60,0.00,,,0.00,meteohub,2013-03-03 10:17:00,
2013-03-03 03:22:00,16.9,5.4,31.70,West,270,0.0,2.0,60,0.00,,,0.00,meteohub,2013-03-03 10:22:00,
2013-03-03 03:27:00,16.7,5.2,31.70,SW,225,0.0,2.0,60,0.00,,,0.00,meteohub,2013-03-03 10:27:00,
2013-03-03 03:32:00,16.7,5.2,31.69,West,270,0.0,2.0,60,0.00,,,0.00,meteohub,2013-03-03 10:32:00,
2013-03-03 03:37:00,17.8,6.3,31.69,SW,225,0.0,2.0,60,0.00,,,0.00,meteohub,2013-03-03 10:37:00,
2013-03-03 03:42:00,18.5,6.3,31.70,West,270,0.0,3.0,58,0.00,,,0.00,meteohub,2013-03-03 10:42:00,
2013-03-03 03:47:00,19.8,8.1,31.70,West,270,1.0,3.0,60,0.00,,,0.00,meteohub,2013-03-03 10:47:00,
2013-03-03 03:52:00,20.8,8.4,31.69,West,270,0.0,3.0,58,0.00,,,0.00,meteohub,2013-03-03 10:52:00,
2013-03-03 03:58:00,21.7,8.1,31.69,SW,225,0.0,3.0,55,0.00,,,0.00,meteohub,2013-03-03 10:58:00,
2013-03-03 04:03:00,23.0,8.1,31.69,NW,315,1.0,3.0,52,0.00,,,0.00,meteohub,2013-03-03 11:03:00,
2013-03-03 04:08:00,23.2,7.7,31.69,SW,225,2.0,4.0,51,0.00,,,0.00,meteohub,2013-03-03 11:08:00,
2013-03-03 04:14:00,23.4,7.0,31.68,West,270,6.0,6.0,49,0.00,,,0.00,meteohub,2013-03-03 11:14:00,
2013-03-03 04:20:00,24.3,7.0,31.68,West,270,0.0,6.0,47,0.00,,,0.00,meteohub,2013-03-03 11:20:00,
2013-03-03 04:25:00,24.8,6.4,31.68,North,0,2.0,6.0,45,0.00,,,0.00,meteohub,2013-03-03 11:25:00,
2013-03-03 04:30:00,25.3,6.4,31.68,West,270,4.0,6.0,44,0.00,,,0.00,meteohub,2013-03-03 11:30:00,
2013-03-03 04:36:00,25.9,7.0,31.68,West,270,4.0,7.0,44,0.00,,,0.00,meteohub,2013-03-03 11:36:00,
2013-03-03 04:42:00,26.6,6.6,31.68,West,270,2.0,7.0,42,0.00,,,0.00,meteohub,2013-03-03 11:42:00,
2013-03-03 04:47:00,26.6,6.6,31.68,West,270,5.0,5.0,42,0.00,,,0.00,meteohub,2013-03-03 11:47:00,
2013-03-03 04:52:00,27.5,7.3,31.67,NW,315,2.0,7.0,42,0.00,,,0.00,meteohub,2013-03-03 11:52:00,
2013-03-03 04:57:00,27.9,7.2,31.67,West,270,4.0,7.0,41,0.00,,,0.00,meteohub,2013-03-03 11:57:00,
2013-03-03 05:02:00,28.0,7.3,31.67,WNW,293,3.0,7.0,41,0.00,,,0.00,meteohub,2013-03-03 12:02:00,
2013-03-03 05:07:00,28.0,7.3,31.67,WNW,293,3.0,7.0,41,0.00,,,0.00,meteohub,2013-03-03 12:07:00,
2013-03-03 05:12:00,28.4,9.7,31.68,SW,225,3.0,7.0,45,0.00,,,0.00,meteohub,2013-03-03 12:12:00,
2013-03-03 05:17:00,28.4,9.7,31.67,West,270,4.0,6.0,45,0.00,,,0.00,meteohub,2013-03-03 12:17:00,
2013-03-03 05:22:00,27.9,7.2,31.67,SW,225,0.0,6.0,41,0.00,,,0.00,meteohub,2013-03-03 12:22:00,
2013-03-03 05:27:00,27.3,6.8,31.67,West,270,4.0,4.0,41,0.00,,,0.00,meteohub,2013-03-03 12:27:00,
2013-03-03 05:32:00,27.0,6.4,31.66,West,270,4.0,4.0,41,0.00,,,0.00,meteohub,2013-03-03 12:32:00,
2013-03-03 05:37:00,27.0,6.4,31.66,West,270,3.0,7.0,41,0.00,,,0.00,meteohub,2013-03-03 12:37:00,
2013-03-03 05:42:00,27.0,6.4,31.66,SW,225,2.0,7.0,41,0.00,,,0.00,meteohub,2013-03-03 12:42:00,
2013-03-03 05:47:00,27.0,6.4,31.66,NW,315,2.0,7.0,41,0.00,,,0.00,meteohub,2013-03-03 12:47:00,
2013-03-03 05:52:00,27.0,6.4,31.66,West,270,3.0,4.0,41,0.00,,,0.00,meteohub,2013-03-03 12:52:00,
2013-03-03 05:57:00,26.8,6.3,31.65,West,270,3.0,4.0,41,0.00,,,0.00,meteohub,2013-03-03 12:57:00,
2013-03-03 06:03:00,27.0,6.4,31.65,West,270,4.0,4.0,41,0.00,,,0.00,meteohub,2013-03-03 13:03:00,
2013-03-03 06:08:00,27.0,6.4,31.65,West,270,2.0,4.0,41,0.00,,,0.00,meteohub,2013-03-03 13:08:00,
2013-03-03 06:14:00,26.6,6.1,31.65,West,270,3.0,4.0,41,0.00,,,0.00,meteohub,2013-03-03 13:14:00,
2013-03-03 06:19:00,26.6,6.1,31.65,West,270,5.0,5.0,41,0.00,,,0.00,meteohub,2013-03-03 13:19:00,
2013-03-03 06:24:00,26.8,6.3,31.65,NW,315,2.0,4.0,41,0.00,,,0.00,meteohub,2013-03-03 13:24:00,
2013-03-03 06:30:00,26.8,6.3,31.65,NW,315,2.0,5.0,41,0.00,,,0.00,meteohub,2013-03-03 13:30:00,
2013-03-03 06:35:00,26.8,6.3,31.65,WNW,293,4.0,4.0,41,0.00,,,0.00,meteohub,2013-03-03 13:35:00,
2013-03-03 06:40:00,27.0,7.0,31.65,West,270,4.0,4.0,42,0.00,,,0.00,meteohub,2013-03-03 13:40:00,
2013-03-03 06:46:00,27.3,6.8,31.65,West,270,4.0,4.0,41,0.00,,,0.00,meteohub,2013-03-03 13:46:00,
2013-03-03 06:51:00,27.3,7.2,31.64,NW,315,2.0,4.0,42,0.00,,,0.00,meteohub,2013-03-03 13:51:00,
2013-03-03 06:56:00,27.5,7.3,31.65,SW,225,2.0,4.0,42,0.00,,,0.00,meteohub,2013-03-03 13:56:00,
2013-03-03 07:02:00,27.7,7.5,31.65,West,270,3.0,5.0,42,0.00,,,0.00,meteohub,2013-03-03 14:02:00,
2013-03-03 07:07:00,28.6,10.4,31.65,West,270,1.0,5.0,46,0.00,,,0.00,meteohub,2013-03-03 14:07:00,
2013-03-03 07:13:00,28.9,10.8,31.64,West,270,4.0,5.0,46,0.00,,,0.00,meteohub,2013-03-03 14:13:00,
2013-03-03 07:18:00,29.3,11.1,31.65,North,0,4.0,4.0,46,0.00,,,0.00,meteohub,2013-03-03 14:18:00,
2013-03-03 07:24:00,29.7,11.5,31.64,NW,315,2.0,5.0,46,0.00,,,0.00,meteohub,2013-03-03 14:24:00,
2013-03-03 07:29:00,30.0,11.3,31.64,West,270,4.0,5.0,45,0.00,,,0.00,meteohub,2013-03-03 14:29:00,
2013-03-03 07:34:00,30.4,11.1,31.64,NW,315,5.0,5.0,44,0.00,,,0.00,meteohub,2013-03-03 14:34:00,
2013-03-03 07:40:00,31.3,11.8,31.63,North,0,4.0,5.0,44,0.00,,,0.00,meteohub,2013-03-03 14:40:00,
2013-03-03 07:46:00,32.4,12.4,31.64,SW,225,4.0,5.0,43,0.00,,,0.00,meteohub,2013-03-03 14:46:00,
2013-03-03 07:51:00,33.8,13.1,31.63,North,0,3.0,7.0,42,0.00,,,0.00,meteohub,2013-03-03 14:51:00,
2013-03-03 07:57:00,35.6,12.6,31.63,NW,315,7.0,7.0,38,0.00,,,0.00,meteohub,2013-03-03 14:57:00,
2013-03-03 08:02:00,36.5,11.5,31.63,NW,315,4.0,8.0,35,0.00,,,0.00,meteohub,2013-03-03 15:02:00,
2013-03-03 08:07:00,36.0,9.7,31.62,North,0,5.0,8.0,33,0.00,,,0.00,meteohub,2013-03-03 15:07:00,
2013-03-03 08:12:00,35.8,10.2,31.64,NW,315,4.0,8.0,34,0.00,,,0.00,meteohub,2013-03-03 15:12:00,
2013-03-03 08:17:00,36.5,11.5,31.63,NW,315,5.0,8.0,35,0.00,,,0.00,meteohub,2013-03-03 15:17:00,
2013-03-03 08:22:00,37.6,14.2,31.63,WNW,293,6.0,7.0,38,0.00,,,0.00,meteohub,2013-03-03 15:22:00,
2013-03-03 08:27:00,38.8,15.4,31.63,East,90,7.0,7.0,38,0.00,,,0.00,meteohub,2013-03-03 15:27:00,
2013-03-03 08:32:00,40.3,16.2,31.63,East,90,11.0,11.0,37,0.00,,,0.00,meteohub,2013-03-03 15:32:00,
2013-03-03 08:37:00,39.9,15.1,31.63,ENE,68,4.0,11.0,36,0.00,,,0.00,meteohub,2013-03-03 15:37:00,
2013-03-03 08:42:00,41.2,15.6,31.63,NE,45,11.0,11.0,35,0.00,,,0.00,meteohub,2013-03-03 15:42:00,
2013-03-03 08:48:00,41.0,14.7,31.62,North,0,11.0,11.0,34,0.00,,,0.00,meteohub,2013-03-03 15:48:00,
2013-03-03 08:53:00,39.2,13.1,31.63,WSW,248,6.0,11.0,34,0.00,,,0.00,meteohub,2013-03-03 15:53:00,
2013-03-03 08:59:00,40.5,15.6,31.63,NW,315,4.0,11.0,36,0.00,,,0.00,meteohub,2013-03-03 15:59:00,
2013-03-03 09:05:00,40.6,15.8,31.63,NE,45,2.0,11.0,36,0.00,,,0.00,meteohub,2013-03-03 16:05:00,
2013-03-03 09:10:00,42.4,10.8,31.62,NW,315,3.0,9.0,27,0.00,,,0.00,meteohub,2013-03-03 16:10:00,
2013-03-03 09:15:00,45.1,10.4,31.62,ENE,68,3.0,7.0,24,0.00,,,0.00,meteohub,2013-03-03 16:15:00,
2013-03-03 09:21:00,46.8,16.9,31.62,WNW,293,5.0,7.0,30,0.00,,,0.00,meteohub,2013-03-03 16:21:00,
2013-03-03 09:26:00,47.1,17.2,31.61,WNW,293,3.0,7.0,30,0.00,,,0.00,meteohub,2013-03-03 16:26:00,
2013-03-03 09:32:00,46.8,16.2,31.61,West,270,6.0,8.0,29,0.00,,,0.00,meteohub,2013-03-03 16:32:00,
2013-03-03 09:37:00,46.4,16.7,31.62,NE,45,9.0,9.0,30,0.00,,,0.00,meteohub,2013-03-03 16:37:00,
2013-03-03 09:43:00,45.7,15.3,31.62,East,90,12.0,12.0,29,0.00,,,0.00,meteohub,2013-03-03 16:43:00,
2013-03-03 09:48:00,43.9,14.4,31.62,East,90,7.0,12.0,30,0.00,,,0.00,meteohub,2013-03-03 16:48:00,
2013-03-03 09:54:00,42.4,14.7,31.61,NNE,23,8.0,12.0,32,0.00,,,0.00,meteohub,2013-03-03 16:54:00,
2013-03-03 10:00:00,42.1,15.1,31.61,NE,45,7.0,12.0,33,0.00,,,0.00,meteohub,2013-03-03 17:00:00,
2013-03-03 10:05:00,43.2,12.2,31.61,SW,225,10.0,14.0,28,0.00,,,0.00,meteohub,2013-03-03 17:05:00,
2013-03-03 10:10:00,44.1,12.2,31.61,South,180,3.0,14.0,27,0.00,,,0.00,meteohub,2013-03-03 17:10:00,
2013-03-03 10:16:00,45.9,12.9,31.61,North,0,3.0,14.0,26,0.00,,,0.00,meteohub,2013-03-03 17:16:00,
2013-03-03 10:22:00,47.8,16.3,31.61,ESE,113,4.0,14.0,28,0.00,,,0.00,meteohub,2013-03-03 17:22:00,
2013-03-03 10:27:00,47.3,18.9,31.61,West,270,2.0,8.0,32,0.00,,,0.00,meteohub,2013-03-03 17:27:00,
2013-03-03 10:32:00,46.8,14.5,31.62,SW,225,6.0,8.0,27,0.00,,,0.00,meteohub,2013-03-03 17:32:00,
2013-03-03 10:37:00,46.0,13.1,31.62,West,270,4.0,8.0,26,0.00,,,0.00,meteohub,2013-03-03 17:37:00,
2013-03-03 10:42:00,44.6,12.7,31.60,NW,315,15.0,15.0,27,0.00,,,0.00,meteohub,2013-03-03 17:42:00,
2013-03-03 10:47:00,44.4,12.6,31.62,South,180,6.0,15.0,27,0.00,,,0.00,meteohub,2013-03-03 17:47:00,
2013-03-03 10:53:00,43.9,13.6,31.61,SE,135,6.0,15.0,29,0.00,,,0.00,meteohub,2013-03-03 17:53:00,
2013-03-03 10:59:00,42.8,14.9,31.60,ENE,68,9.0,15.0,32,0.00,,,0.00,meteohub,2013-03-03 17:59:00,
2013-03-03 11:04:00,42.1,15.8,31.60,ESE,113,6.0,11.0,34,0.00,,,0.00,meteohub,2013-03-03 18:04:00,
2013-03-03 11:10:00,41.7,14.7,31.60,East,90,5.0,11.0,33,0.00,,,0.00,meteohub,2013-03-03 18:10:00,
2013-03-03 11:15:00,42.4,16.0,31.60,East,90,4.0,8.0,34,0.00,,,0.00,meteohub,2013-03-03 18:15:00,
2013-03-03 11:21:00,43.5,14.9,31.60,South,180,4.0,8.0,31,0.00,,,0.00,meteohub,2013-03-03 18:21:00,
2013-03-03 11:27:00,44.1,13.8,31.59,NW,315,1.0,7.0,29,0.00,,,0.00,meteohub,2013-03-03 18:27:00,
2013-03-03 11:32:00,44.6,12.7,31.60,SW,225,1.0,9.0,27,0.00,,,0.00,meteohub,2013-03-03 18:32:00,
2013-03-03 11:37:00,45.3,13.3,31.60,SW,225,4.0,9.0,27,0.00,,,0.00,meteohub,2013-03-03 18:37:00,
2013-03-03 11:42:00,44.6,11.8,31.59,SSE,158,6.0,7.0,26,0.00,,,0.00,meteohub,2013-03-03 18:42:00,
2013-03-03 11:47:00,43.7,11.8,31.59,South,180,8.0,8.0,27,0.00,,,0.00,meteohub,2013-03-03 18:47:00,
2013-03-03 11:52:00,43.0,12.0,31.59,West,270,13.0,13.0,28,0.00,,,0.00,meteohub,2013-03-03 18:52:00,
2013-03-03 11:57:00,42.6,13.3,31.59,SE,135,4.0,13.0,30,0.00,,,0.00,meteohub,2013-03-03 18:57:00,
2013-03-03 12:03:00,42.8,14.2,31.59,WSW,248,8.0,13.0,31,0.00,,,0.00,meteohub,2013-03-03 19:03:00,
2013-03-03 12:08:00,42.6,15.4,31.59,SW,225,6.0,13.0,33,0.00,,,0.00,meteohub,2013-03-03 19:08:00,
2013-03-03 12:14:00,43.0,15.8,31.58,North,0,3.0,11.0,33,0.00,,,0.00,meteohub,2013-03-03 19:14:00,
2013-03-03 12:19:00,43.2,16.7,31.58,NNW,338,5.0,11.0,34,0.00,,,0.00,meteohub,2013-03-03 19:19:00,
2013-03-03 12:25:00,43.0,17.2,31.58,West,270,4.0,10.0,35,0.00,,,0.00,meteohub,2013-03-03 19:25:00,
2013-03-03 12:31:00,43.0,17.2,31.57,NW,315,5.0,10.0,35,0.00,,,0.00,meteohub,2013-03-03 19:31:00,
2013-03-03 12:36:00,43.3,16.9,31.57,West,270,2.0,8.0,34,0.00,,,0.00,meteohub,2013-03-03 19:36:00,
2013-03-03 12:42:00,43.7,17.2,31.57,SW,225,10.0,10.0,34,0.00,,,0.00,meteohub,2013-03-03 19:42:00,
2013-03-03 12:47:00,43.0,15.8,31.57,NW,315,2.0,10.0,33,0.00,,,0.00,meteohub,2013-03-03 19:47:00,
2013-03-03 12:52:00,43.3,16.2,31.57,SW,225,2.0,10.0,33,0.00,,,0.00,meteohub,2013-03-03 19:52:00,
2013-03-03 12:57:00,44.2,16.9,31.57,South,180,4.0,10.0,33,0.00,,,0.00,meteohub,2013-03-03 19:57:00,
2013-03-03 13:02:00,44.2,16.2,31.56,South,180,6.0,11.0,32,0.00,,,0.00,meteohub,2013-03-03 20:02:00,
2013-03-03 13:07:00,44.2,16.2,31.56,South,180,6.0,11.0,32,0.00,,,0.00,meteohub,2013-03-03 20:07:00,
2013-03-03 13:12:00,43.7,16.5,31.56,NW,315,5.0,13.0,33,0.00,,,0.00,meteohub,2013-03-03 20:12:00,
2013-03-03 13:17:00,45.1,17.1,31.55,SW,225,11.0,15.0,32,0.00,,,0.00,meteohub,2013-03-03 20:17:00,
2013-03-03 13:23:00,45.3,16.5,31.55,West,270,8.0,15.0,31,0.00,,,0.00,meteohub,2013-03-03 20:23:00,
2013-03-03 13:28:00,45.1,16.3,31.55,South,180,6.0,15.0,31,0.00,,,0.00,meteohub,2013-03-03 20:28:00,
2013-03-03 13:34:00,44.8,16.7,31.55,WSW,248,8.0,13.0,32,0.00,,,0.00,meteohub,2013-03-03 20:34:00,
2013-03-03 13:39:00,44.2,16.2,31.54,SE,135,7.0,13.0,32,0.00,,,0.00,meteohub,2013-03-03 20:39:00,
2013-03-03 13:45:00,44.1,16.7,31.54,South,180,9.0,13.0,33,0.00,,,0.00,meteohub,2013-03-03 20:45:00,
2013-03-03 13:50:00,43.7,17.8,31.54,SW,225,9.0,13.0,35,0.00,,,0.00,meteohub,2013-03-03 20:50:00,
2013-03-03 13:55:00,43.2,16.7,31.54,West,270,8.0,15.0,34,0.00,,,0.00,meteohub,2013-03-03 20:55:00,
2013-03-03 14:00:00,43.3,18.1,31.54,West,270,9.0,15.0,36,0.00,,,0.00,meteohub,2013-03-03 21:00:00,
2013-03-03 14:06:00,43.0,17.2,31.53,SW,225,21.0,21.0,35,0.00,,,0.00,meteohub,2013-03-03 21:06:00,
2013-03-03 14:11:00,42.6,18.1,31.53,West,270,7.0,21.0,37,0.00,,,0.00,meteohub,2013-03-03 21:11:00,
2013-03-03 14:17:00,43.0,17.8,31.53,West,270,6.0,21.0,36,0.00,,,0.00,meteohub,2013-03-03 21:17:00,
2013-03-03 14:22:00,43.5,17.6,31.54,NW,315,8.0,21.0,35,0.00,,,0.00,meteohub,2013-03-03 21:22:00,
2013-03-03 14:27:00,43.7,17.8,31.54,West,270,11.0,15.0,35,0.00,,,0.00,meteohub,2013-03-03 21:27:00,
2013-03-03 14:32:00,43.9,18.0,31.54,SW,225,5.0,15.0,35,0.00,,,0.00,meteohub,2013-03-03 21:32:00,
2013-03-03 14:37:00,43.3,17.6,31.54,NW,315,4.0,17.0,35,0.00,,,0.00,meteohub,2013-03-03 21:37:00,
2013-03-03 14:42:00,43.0,18.5,31.54,SW,225,9.0,17.0,37,0.00,,,0.00,meteohub,2013-03-03 21:42:00,
2013-03-03 14:48:00,41.9,19.9,31.54,West,270,11.0,17.0,41,0.00,,,0.00,meteohub,2013-03-03 21:48:00,
2013-03-03 14:53:00,41.5,20.7,31.54,SW,225,10.0,20.0,43,0.00,,,0.00,meteohub,2013-03-03 21:53:00,
2013-03-03 14:58:00,41.4,20.5,31.55,SW,225,6.0,20.0,43,0.00,,,0.00,meteohub,2013-03-03 21:58:00,
2013-03-03 15:04:00,41.4,21.0,31.55,NE,45,11.0,20.0,44,0.00,,,0.00,meteohub,2013-03-03 22:04:00,
2013-03-03 15:09:00,40.5,21.4,31.55,NNW,338,8.0,11.0,46,0.00,,,0.00,meteohub,2013-03-03 22:09:00,
2013-03-03 15:15:00,40.3,21.2,31.55,West,270,4.0,11.0,46,0.00,,,0.00,meteohub,2013-03-03 22:15:00,
2013-03-03 15:20:00,41.0,21.7,31.55,South,180,8.0,11.0,46,0.00,,,0.00,meteohub,2013-03-03 22:20:00,
2013-03-03 15:26:00,40.8,21.6,31.55,SW,225,3.0,11.0,46,0.00,,,0.00,meteohub,2013-03-03 22:26:00,
2013-03-03 15:32:00,40.3,22.1,31.55,SSE,158,6.0,11.0,48,0.00,,,0.00,meteohub,2013-03-03 22:32:00,
2013-03-03 15:37:00,39.9,21.4,31.55,SW,225,5.0,11.0,47,0.00,,,0.00,meteohub,2013-03-03 22:37:00,
2013-03-03 15:42:00,39.6,21.6,31.54,SW,225,4.0,11.0,48,0.00,,,0.00,meteohub,2013-03-03 22:42:00,
2013-03-03 15:47:00,39.7,22.1,31.54,NE,45,4.0,8.0,49,0.00,,,0.00,meteohub,2013-03-03 22:47:00,
2013-03-03 15:52:00,39.0,22.5,31.55,SW,225,7.0,8.0,51,0.00,,,0.00,meteohub,2013-03-03 22:52:00,
2013-03-03 15:57:00,37.9,21.0,31.55,SW,225,3.0,11.0,50,0.00,,,0.00,meteohub,2013-03-03 22:57:00,
2013-03-03 16:03:00,37.4,20.8,31.54,West,270,4.0,11.0,51,0.00,,,0.00,meteohub,2013-03-03 23:03:00,
2013-03-03 16:09:00,37.2,18.9,31.54,SW,225,6.0,11.0,47,0.00,,,0.00,meteohub,2013-03-03 23:09:00,
2013-03-03 16:14:00,36.9,18.5,31.54,East,90,2.0,8.0,47,0.00,,,0.00,meteohub,2013-03-03 23:14:00,
2013-03-03 16:20:00,36.7,18.9,31.54,West,270,0.0,6.0,48,0.00,,,0.00,meteohub,2013-03-03 23:20:00,
2013-03-03 16:25:00,36.9,18.5,31.54,West,270,3.0,6.0,47,0.00,,,0.00,meteohub,2013-03-03 23:25:00,
2013-03-03 16:30:00,36.7,18.3,31.55,NE,45,2.0,3.0,47,0.00,,,0.00,meteohub,2013-03-03 23:30:00,
2013-03-03 16:36:00,36.3,18.0,31.54,SW,225,3.0,4.0,47,0.00,,,0.00,meteohub,2013-03-03 23:36:00,
2013-03-03 16:42:00,36.0,19.0,31.54,SW,225,2.0,4.0,50,0.00,,,0.00,meteohub,2013-03-03 23:42:00,
2013-03-03 16:47:00,35.6,19.2,31.54,SW,225,2.0,6.0,51,0.00,,,0.00,meteohub,2013-03-03 23:47:00,
2013-03-03 16:52:00,35.4,19.6,31.54,West,270,0.0,6.0,52,0.00,,,0.00,meteohub,2013-03-03 23:52:00,
2013-03-03 16:57:00,35.2,19.4,31.54,SE,135,1.0,6.0,52,0.00,,,0.00,meteohub,2013-03-03 23:57:00,
2013-03-03 17:02:00,35.1,19.6,31.54,SW,225,3.0,6.0,53,0.00,,,0.00,meteohub,2013-03-04 00:02:00,
2013-03-03 17:07:00,35.1,19.6,31.54,SW,225,3.0,3.0,53,0.00,,,0.00,meteohub,2013-03-04 00:07:00,
2013-03-03 17:12:00,34.0,19.6,31.54,SE,135,2.0,5.0,55,0.00,,,0.00,meteohub,2013-03-04 00:12:00,
2013-03-03 17:17:00,33.6,19.9,31.55,SW,225,1.0,5.0,57,0.00,,,0.00,meteohub,2013-03-04 00:17:00,
2013-03-03 17:22:00,33.4,19.4,31.55,SSW,203,2.0,5.0,56,0.00,,,0.00,meteohub,2013-03-04 00:22:00,
2013-03-03 17:27:00,33.3,19.8,31.54,SW,225,2.0,3.0,57,0.00,,,0.00,meteohub,2013-03-04 00:27:00,
2013-03-03 17:32:00,32.9,19.4,31.54,NE,45,0.0,4.0,57,0.00,,,0.00,meteohub,2013-03-04 00:32:00,
2013-03-03 17:37:00,32.9,19.4,31.54,SSE,158,0.0,4.0,57,0.00,,,0.00,meteohub,2013-03-04 00:37:00,
2013-03-03 17:43:00,32.7,19.2,31.54,SE,135,0.0,4.0,57,0.00,,,0.00,meteohub,2013-03-04 00:43:00,
2013-03-03 17:48:00,32.5,19.0,31.54,East,90,2.0,2.0,57,0.00,,,0.00,meteohub,2013-03-04 00:48:00,
2013-03-03 17:54:00,32.4,19.2,31.54,East,90,2.0,2.0,58,0.00,,,0.00,meteohub,2013-03-04 00:54:00,
2013-03-03 17:59:00,32.0,20.1,31.55,South,180,2.0,2.0,61,0.00,,,0.00,meteohub,2013-03-04 00:59:00,
2013-03-03 18:05:00,31.5,20.7,31.54,South,180,3.0,4.0,64,0.00,,,0.00,meteohub,2013-03-04 01:05:00,
2013-03-03 18:10:00,31.1,20.3,31.55,South,180,0.0,4.0,64,0.00,,,0.00,meteohub,2013-03-04 01:10:00,
2013-03-03 18:16:00,30.9,20.5,31.55,NE,45,6.0,6.0,65,0.00,,,0.00,meteohub,2013-03-04 01:16:00,
2013-03-03 18:21:00,30.6,20.5,31.55,South,180,0.0,6.0,66,0.00,,,0.00,meteohub,2013-03-04 01:21:00,
2013-03-03 18:26:00,30.4,20.3,31.55,East,90,1.0,6.0,66,0.00,,,0.00,meteohub,2013-03-04 01:26:00,
2013-03-03 18:32:00,30.4,20.7,31.55,SW,225,2.0,6.0,67,0.00,,,0.00,meteohub,2013-03-04 01:32:00,
2013-03-03 18:37:00,30.0,20.7,31.55,SW,225,0.0,5.0,68,0.00,,,0.00,meteohub,2013-03-04 01:37:00,
2013-03-03 18:42:00,29.8,20.8,31.55,South,180,1.0,5.0,69,0.00,,,0.00,meteohub,2013-03-04 01:42:00,
2013-03-03 18:47:00,29.7,21.0,31.55,SE,135,0.0,4.0,70,0.00,,,0.00,meteohub,2013-03-04 01:47:00,
2013-03-03 18:52:00,29.3,21.0,31.55,SW,225,0.0,4.0,71,0.00,,,0.00,meteohub,2013-03-04 01:52:00,
2013-03-03 18:57:00,29.1,21.2,31.55,West,270,0.0,4.0,72,0.00,,,0.00,meteohub,2013-03-04 01:57:00,
2013-03-03 19:02:00,28.9,21.0,31.55,West,270,0.0,3.0,72,0.00,,,0.00,meteohub,2013-03-04 02:02:00,
2013-03-03 19:07:00,28.9,21.0,31.55,West,270,0.0,3.0,72,0.00,,,0.00,meteohub,2013-03-04 02:07:00,
2013-03-03 19:12:00,28.8,21.6,31.56,SW,225,0.0,3.0,74,0.00,,,0.00,meteohub,2013-03-04 02:12:00,
2013-03-03 19:18:00,28.8,21.6,31.56,West,270,1.0,0.0,74,0.00,,,0.00,meteohub,2013-03-04 02:18:00,
2013-03-03 19:23:00,28.8,21.6,31.55,West,270,0.0,1.0,74,0.00,,,0.00,meteohub,2013-03-04 02:23:00,
2013-03-03 19:28:00,28.8,21.9,31.55,West,270,0.0,2.0,75,0.00,,,0.00,meteohub,2013-03-04 02:28:00,
2013-03-03 19:34:00,28.8,21.9,31.55,NW,315,0.0,2.0,75,0.00,,,0.00,meteohub,2013-03-04 02:34:00,
2013-03-03 19:39:00,28.6,21.7,31.55,East,90,0.0,0.0,75,0.00,,,0.00,meteohub,2013-03-04 02:39:00,
2013-03-03 19:45:00,28.6,21.7,31.55,East,90,0.0,0.0,75,0.00,,,0.00,meteohub,2013-03-04 02:45:00,
2013-03-03 19:50:00,28.4,21.6,31.55,East,90,0.0,0.0,75,0.00,,,0.00,meteohub,2013-03-04 02:50:00,
2013-03-03 19:55:00,28.4,21.6,31.55,ENE,68,2.0,2.0,75,0.00,,,0.00,meteohub,2013-03-04 02:55:00,
2013-03-03 20:01:00,28.0,20.1,31.55,NE,45,0.0,2.0,72,0.00,,,0.00,meteohub,2013-03-04 03:01:00,
2013-03-03 20:07:00,27.9,20.3,31.55,East,90,0.0,2.0,73,0.00,,,0.00,meteohub,2013-03-04 03:07:00,
2013-03-03 20:12:00,27.9,20.3,31.55,NE,45,0.0,2.0,73,0.00,,,0.00,meteohub,2013-03-04 03:12:00,
2013-03-03 20:17:00,27.7,20.5,31.55,NE,45,0.0,2.0,74,0.00,,,0.00,meteohub,2013-03-04 03:17:00,
2013-03-03 20:22:00,27.7,20.5,31.55,SE,135,0.0,0.0,74,0.00,,,0.00,meteohub,2013-03-04 03:22:00,
2013-03-03 20:28:00,27.7,20.5,31.55,East,90,0.0,0.0,74,0.00,,,0.00,meteohub,2013-03-04 03:28:00,
2013-03-03 20:34:00,27.7,20.5,31.55,North,0,0.0,0.0,74,0.00,,,0.00,meteohub,2013-03-04 03:34:00,
2013-03-03 20:39:00,27.7,20.8,31.54,SE,135,0.0,0.0,75,0.00,,,0.00,meteohub,2013-03-04 03:39:00,
2013-03-03 20:44:00,27.7,20.8,31.54,East,90,0.0,0.0,75,0.00,,,0.00,meteohub,2013-03-04 03:44:00,
2013-03-03 20:50:00,27.7,20.8,31.54,SE,135,0.0,0.0,75,0.00,,,0.00,meteohub,2013-03-04 03:50:00,
2013-03-03 20:55:00,27.7,20.8,31.54,SE,135,0.0,0.0,75,0.00,,,0.00,meteohub,2013-03-04 03:55:00,
2013-03-03 21:01:00,27.5,20.7,31.54,NE,45,0.0,0.0,75,0.00,,,0.00,meteohub,2013-03-04 04:01:00,
2013-03-03 21:06:00,27.5,20.7,31.54,NE,45,0.0,0.0,75,0.00,,,0.00,meteohub,2013-03-04 04:06:00,
2013-03-03 21:12:00,27.5,20.7,31.54,NE,45,0.0,0.0,75,0.00,,,0.00,meteohub,2013-03-04 04:12:00,
2013-03-03 21:17:00,27.5,21.0,31.54,NE,45,0.0,0.0,76,0.00,,,0.00,meteohub,2013-03-04 04:17:00,
2013-03-03 21:22:00,27.5,21.0,31.54,East,90,0.0,0.0,76,0.00,,,0.00,meteohub,2013-03-04 04:22:00,
2013-03-03 21:28:00,27.3,20.8,31.53,NE,45,0.0,0.0,76,0.00,,,0.00,meteohub,2013-03-04 04:28:00,
2013-03-03 21:33:00,27.1,20.7,31.53,NE,45,0.0,0.0,76,0.00,,,0.00,meteohub,2013-03-04 04:33:00,
2013-03-03 21:39:00,27.1,20.7,31.53,NE,45,0.0,0.0,76,0.00,,,0.00,meteohub,2013-03-04 04:39:00,
2013-03-03 21:45:00,27.0,20.5,31.53,East,90,0.0,0.0,76,0.00,,,0.00,meteohub,2013-03-04 04:45:00,
2013-03-03 21:51:00,27.0,20.7,31.53,East,90,0.0,0.0,77,0.00,,,0.00,meteohub,2013-03-04 04:51:00,
2013-03-03 21:56:00,27.0,20.7,31.52,East,90,0.0,0.0,77,0.00,,,0.00,meteohub,2013-03-04 04:56:00,
2013-03-03 22:00:00,27.0,20.7,31.52,NE,45,0.0,0.0,77,0.00,,,0.00,meteohub,2013-03-04 05:00:00,
2013-03-03 22:02:00,27.0,20.7,31.52,NE,45,0.0,0.0,77,0.00,,,0.00,meteohub,2013-03-04 05:02:00,
2013-03-03 22:03:00,27.0,20.7,31.52,NE,45,0.0,0.0,77,0.00,,,0.00,meteohub,2013-03-04 05:03:00,
2013-03-03 22:09:00,27.0,20.7,31.52,NE,45,0.0,0.0,77,0.00,,,0.00,meteohub,2013-03-04 05:09:00,
2013-03-03 22:14:00,27.0,20.7,31.52,NE,45,0.0,0.0,77,0.00,,,0.00,meteohub,2013-03-04 05:14:00,
2013-03-03 22:19:00,27.0,20.7,31.52,NE,45,0.0,0.0,77,0.00,,,0.00,meteohub,2013-03-04 05:19:00,
2013-03-03 22:25:00,27.0,20.7,31.52,NE,45,0.0,0.0,77,0.00,,,0.00,meteohub,2013-03-04 05:25:00,
2013-03-03 22:30:00,27.0,20.7,31.52,NE,45,0.0,0.0,77,0.00,,,0.00,meteohub,2013-03-04 05:30:00,
2013-03-03 22:36:00,27.0,20.7,31.51,NE,45,0.0,0.0,77,0.00,,,0.00,meteohub,2013-03-04 05:36:00,
2013-03-03 22:41:00,27.0,20.7,31.51,NE,45,0.0,0.0,77,0.00,,,0.00,meteohub,2013-03-04 05:41:00,
2013-03-03 22:46:00,26.8,20.5,31.51,NE,45,0.0,0.0,77,0.00,,,0.00,meteohub,2013-03-04 05:46:00,
2013-03-03 22:52:00,26.8,20.5,31.51,NE,45,0.0,0.0,77,0.00,,,0.00,meteohub,2013-03-04 05:52:00,
2013-03-03 22:57:00,26.8,20.5,31.51,NE,45,0.0,0.0,77,0.00,,,0.00,meteohub,2013-03-04 05:57:00,
2013-03-03 23:02:00,26.8,20.5,31.51,NE,45,0.0,0.0,77,0.00,,,0.00,meteohub,2013-03-04 06:02:00,
2013-03-03 23:07:00,26.8,20.5,31.50,NE,45,0.0,0.0,77,0.00,,,0.00,meteohub,2013-03-04 06:07:00,
2013-03-03 23:12:00,26.8,20.5,31.51,NE,45,0.0,0.0,77,0.00,,,0.00,meteohub,2013-03-04 06:12:00,
2013-03-03 23:17:00,26.8,20.5,31.51,NE,45,0.0,0.0,77,0.00,,,0.00,meteohub,2013-03-04 06:17:00,
2013-03-03 23:22:00,26.8,20.5,31.50,NE,45,0.0,0.0,77,0.00,,,0.00,meteohub,2013-03-04 06:22:00,
2013-03-03 23:27:00,26.8,20.8,31.51,NE,45,0.0,0.0,78,0.00,,,0.00,meteohub,2013-03-04 06:27:00,
2013-03-03 23:32:00,26.8,20.8,31.51,NE,45,0.0,0.0,78,0.00,,,0.00,meteohub,2013-03-04 06:32:00,
2013-03-03 23:38:00,26.8,20.8,31.50,NE,45,0.0,0.0,78,0.00,,,0.00,meteohub,2013-03-04 06:38:00,
2013-03-03 23:44:00,26.8,20.8,31.50,NE,45,0.0,0.0,78,0.00,,,0.00,meteohub,2013-03-04 06:44:00,
2013-03-03 23:49:00,26.6,20.7,31.50,NE,45,0.0,0.0,78,0.00,,,0.00,meteohub,2013-03-04 06:49:00,
2013-03-03 23:54:00,26.6,20.7,31.49,SE,135,0.0,0.0,78,0.00,,,0.00,meteohub,2013-03-04 06:54:00,